Airport ID:KTSP
Update Time (UTC):17 SEP 19 20:45
Wind Speed (Knots):12
Wind Direction (Magnetic):300
Temperature (°C):19
Dew Point (°C):7
Humidity (%):45
Altimeter (inHg):30.11
Density Altitude (Feet):5200
Visibility (Miles):9
Clouds (Hundreds of feet):CLR
Present Weather:NO PRECIPITATION
METAR:METAR KTSP 172045Z AUTO 31012G19KT 8SM CLR 19/07 A3011 RMK AO2

The data displayed is for advisory purposes only and is not to be used for flight planning or operations.

This page is not automatically refreshed. Reload the page to see current data.